Weather at Avalon Airport

Public forecast

Using degrees Celsius for public forecast. Weather courtesy of forecast.io.

Current aviation weather report (METAR) for Avalon Airport

2024/07/14 18:00 (retrieved 11 minutes ago)

YMAV 141800Z AUTO 28012KT 9999 // NCD 06/05 Q1009 RF000/0004

Aviation forecast (TAF) for Avalon Airport

2024/07/14 17:45 Ammendment (retrieved 26 minutes ago)

AMD YMAV 141743Z 1417/1518 26014KT 9999 -SHRA SCT030 SCT040 FM150300 26018KT 9999 -RA SCT020 BKN030 FM150900 26020KT 9999 -RA SCT015 BKN020 FM151600 25020KT 9999 -RA SCT008 BKN012 TEMPO 1417/1422 9999 SCT005 BKN008 TEMPO 1506/1509 5000 RA SCT015 BKN020 TEMPO 1509/1516 26022G32KT 3000 RA BKN012 TEMPO 1516/1518 3000 RA BKN005